DAH78B DTTA-DAAG
Flight info
| Callsign | DAH78B |
|---|---|
| Flight time | 1h 7m |
| Altitude | 24000 |
| Route | KEMIR3C KEMIR A411 BJA/N0456F400 DCT 37N004E DCT ZEM |
| Aircraft | B736/M-SDE2E3FGHIRWXY/LB1 |
Departure
| Time | 2026-05-04 14:19 |
|---|---|
| Airport | Tunis Carthage International Airport (DTTA) |
Arrival
| Time | 2026-05-04 15:26 |
|---|---|
| Airport | Houari Boumediene Airport (DAAG) |
| Time | Latitude | Longitude | Altitude | Speed | Heading |
|---|---|---|---|---|---|
| 2026-05-04 13:44 | 36.84661 | 10.21959 | 28 ft | 0 kts | 198° |
| 2026-05-04 14:06 | 36.84664 | 10.21960 | 29 ft | 2 kts | 198° |
| 2026-05-04 14:06 | 36.84677 | 10.21965 | 29 ft | 2 kts | 197° |
| 2026-05-04 14:07 | 36.84690 | 10.21970 | 29 ft | 2 kts | 196° |
| 2026-05-04 14:07 | 36.84703 | 10.21975 | 29 ft | 2 kts | 193° |
| 2026-05-04 14:07 | 36.84715 | 10.21978 | 29 ft | 2 kts | 186° |
| 2026-05-04 14:07 | 36.84723 | 10.21979 | 29 ft | 1 kts | 170° |
| 2026-05-04 14:08 | 36.84729 | 10.21977 | 29 ft | 1 kts | 146° |
| 2026-05-04 14:08 | 36.84733 | 10.21973 | 29 ft | 1 kts | 121° |
| 2026-05-04 14:08 | 36.84736 | 10.21966 | 26 ft | 1 kts | 109° |
| 2026-05-04 14:08 | 36.84738 | 10.21959 | 26 ft | 1 kts | 105° |
| 2026-05-04 14:09 | 36.84740 | 10.21949 | 40 ft | 0 kts | 103° |
| 2026-05-04 14:14 | 36.84737 | 10.21963 | 26 ft | 5 kts | 103° |
| 2026-05-04 14:14 | 36.84733 | 10.22008 | 48 ft | 0 kts | 79° |
| 2026-05-04 14:15 | 36.84789 | 10.22031 | 29 ft | 10 kts | 11° |
| 2026-05-04 14:15 | 36.84892 | 10.22190 | 29 ft | 19 kts | 96° |
| 2026-05-04 14:16 | 36.84918 | 10.22373 | 30 ft | 9 kts | 18° |
| 2026-05-04 14:16 | 36.84985 | 10.22385 | 30 ft | 11 kts | 347° |
| 2026-05-04 14:17 | 36.85071 | 10.22171 | 30 ft | 19 kts | 293° |
| 2026-05-04 14:17 | 36.85126 | 10.22004 | 29 ft | 23 kts | 293° |
| 2026-05-04 14:17 | 36.85335 | 10.21735 | 29 ft | 26 kts | 27° |
| 2026-05-04 14:18 | 36.85401 | 10.21855 | 31 ft | 14 kts | 107° |
| 2026-05-04 14:18 | 36.85377 | 10.21916 | 31 ft | 0 kts | 112° |
| 2026-05-04 14:19 | 36.85261 | 10.22264 | 33 ft | 99 kts | 112° |
| 2026-05-04 14:19 | 36.84875 | 10.23417 | 295 ft | 171 kts | 112° |
| 2026-05-04 14:19 | 36.84418 | 10.24811 | 1620 ft | 179 kts | 112° |
| 2026-05-04 14:19 | 36.83944 | 10.26252 | 3075 ft | 187 kts | 125° |
| 2026-05-04 14:20 | 36.82950 | 10.27408 | 3819 ft | 212 kts | 156° |
| 2026-05-04 14:20 | 36.81419 | 10.27580 | 4248 ft | 238 kts | 195° |
| 2026-05-04 14:20 | 36.80008 | 10.26468 | 5080 ft | 240 kts | 233° |
| 2026-05-04 14:21 | 36.79688 | 10.22427 | 6742 ft | 277 kts | 288° |
| 2026-05-04 14:21 | 36.80561 | 10.20106 | 7053 ft | 313 kts | 296° |
| 2026-05-04 14:21 | 36.81124 | 10.18397 | 7368 ft | 330 kts | 283° |
| 2026-05-04 14:21 | 36.81330 | 10.14661 | 9164 ft | 316 kts | 270° |
| 2026-05-04 14:22 | 36.81349 | 10.12835 | 10244 ft | 303 kts | 270° |
| 2026-05-04 14:22 | 36.81376 | 10.10213 | 11406 ft | 307 kts | 270° |
| 2026-05-04 14:22 | 36.81408 | 10.07446 | 11806 ft | 333 kts | 270° |
| 2026-05-04 14:22 | 36.81448 | 10.04503 | 12347 ft | 349 kts | 271° |
| 2026-05-04 14:23 | 36.81550 | 9.98339 | 14272 ft | 356 kts | 271° |
| 2026-05-04 14:23 | 36.81605 | 9.95264 | 15123 ft | 359 kts | 271° |
| 2026-05-04 14:23 | 36.81663 | 9.92129 | 15999 ft | 362 kts | 271° |
| 2026-05-04 14:24 | 36.81721 | 9.88962 | 16858 ft | 366 kts | 271° |
| 2026-05-04 14:24 | 36.81781 | 9.85757 | 17684 ft | 370 kts | 271° |
| 2026-05-04 14:24 | 36.81839 | 9.82572 | 18475 ft | 373 kts | 271° |
| 2026-05-04 14:24 | 36.81898 | 9.79303 | 19155 ft | 378 kts | 271° |
| 2026-05-04 14:25 | 36.81957 | 9.75994 | 19836 ft | 382 kts | 271° |
| 2026-05-04 14:25 | 36.82072 | 9.69306 | 21209 ft | 390 kts | 271° |
| 2026-05-04 14:25 | 36.82131 | 9.65892 | 21887 ft | 393 kts | 271° |
| 2026-05-04 14:26 | 36.82187 | 9.62497 | 22540 ft | 397 kts | 271° |
| 2026-05-04 14:26 | 36.82244 | 9.59018 | 23187 ft | 401 kts | 271° |
| 2026-05-04 14:26 | 36.82301 | 9.55520 | 23800 ft | 404 kts | 271° |
| 2026-05-04 14:26 | 36.82356 | 9.51999 | 23961 ft | 405 kts | 271° |
| 2026-05-04 14:27 | 36.82411 | 9.48460 | 23999 ft | 408 kts | 271° |
| 2026-05-04 14:27 | 36.82464 | 9.44963 | 23998 ft | 407 kts | 271° |
| 2026-05-04 14:27 | 36.82517 | 9.41426 | 24005 ft | 406 kts | 271° |
| 2026-05-04 14:27 | 36.82568 | 9.37895 | 24006 ft | 405 kts | 271° |
| 2026-05-04 14:28 | 36.82618 | 9.34365 | 24013 ft | 405 kts | 271° |
| 2026-05-04 14:28 | 36.82668 | 9.30839 | 24018 ft | 405 kts | 271° |
| 2026-05-04 14:28 | 36.82716 | 9.27355 | 24011 ft | 405 kts | 271° |
| 2026-05-04 14:28 | 36.82763 | 9.23835 | 24013 ft | 405 kts | 271° |
| 2026-05-04 14:29 | 36.82855 | 9.16771 | 24006 ft | 405 kts | 271° |
| 2026-05-04 14:29 | 36.82911 | 9.12212 | 24014 ft | 406 kts | 271° |
| 2026-05-04 14:30 | 36.82917 | 9.11789 | 24014 ft | 406 kts | 271° |
| 2026-05-04 14:30 | 36.82959 | 9.08253 | 24016 ft | 406 kts | 271° |
| 2026-05-04 14:30 | 36.83060 | 9.01233 | 24032 ft | 405 kts | 271° |
| 2026-05-04 14:31 | 36.83079 | 8.97707 | 24052 ft | 405 kts | 270° |
| 2026-05-04 14:31 | 36.83138 | 8.90700 | 24026 ft | 405 kts | 271° |
| 2026-05-04 14:32 | 36.83228 | 8.83641 | 24026 ft | 404 kts | 271° |
| 2026-05-04 14:32 | 36.83264 | 8.80113 | 24018 ft | 404 kts | 271° |
| 2026-05-04 14:32 | 36.83297 | 8.76636 | 24031 ft | 404 kts | 271° |
| 2026-05-04 14:32 | 36.83329 | 8.73124 | 24013 ft | 404 kts | 271° |
| 2026-05-04 14:33 | 36.83361 | 8.69599 | 24010 ft | 405 kts | 270° |
| 2026-05-04 14:33 | 36.83391 | 8.66123 | 24021 ft | 404 kts | 270° |
| 2026-05-04 14:33 | 36.83414 | 8.62599 | 24012 ft | 404 kts | 270° |
| 2026-05-04 14:33 | 36.83419 | 8.59073 | 24018 ft | 404 kts | 270° |
| 2026-05-04 14:34 | 36.83417 | 8.55601 | 24019 ft | 405 kts | 270° |
| 2026-05-04 14:34 | 36.83413 | 8.52076 | 24017 ft | 405 kts | 270° |
| 2026-05-04 14:34 | 36.83409 | 8.48555 | 24014 ft | 405 kts | 270° |
| 2026-05-04 14:34 | 36.83406 | 8.45025 | 24006 ft | 405 kts | 270° |
| 2026-05-04 14:35 | 36.83402 | 8.41496 | 24012 ft | 405 kts | 270° |
| 2026-05-04 14:35 | 36.83398 | 8.38013 | 24007 ft | 405 kts | 270° |
| 2026-05-04 14:35 | 36.83393 | 8.34480 | 24011 ft | 404 kts | 270° |
| 2026-05-04 14:35 | 36.83387 | 8.31006 | 24014 ft | 404 kts | 270° |
| 2026-05-04 14:36 | 36.83381 | 8.27491 | 24012 ft | 404 kts | 270° |
| 2026-05-04 14:36 | 36.83373 | 8.23983 | 24007 ft | 404 kts | 270° |
| 2026-05-04 14:36 | 36.83365 | 8.20461 | 24008 ft | 404 kts | 270° |
| 2026-05-04 14:36 | 36.83355 | 8.16978 | 24004 ft | 404 kts | 270° |
| 2026-05-04 14:37 | 36.83344 | 8.13453 | 24009 ft | 404 kts | 270° |
| 2026-05-04 14:37 | 36.83332 | 8.09920 | 23989 ft | 404 kts | 270° |
| 2026-05-04 14:37 | 36.83320 | 8.06446 | 23999 ft | 404 kts | 270° |
| 2026-05-04 14:37 | 36.83306 | 8.02916 | 23997 ft | 404 kts | 269° |
| 2026-05-04 14:38 | 36.83291 | 7.99441 | 24002 ft | 404 kts | 269° |
| 2026-05-04 14:38 | 36.83275 | 7.95927 | 23998 ft | 404 kts | 269° |
| 2026-05-04 14:38 | 36.83259 | 7.92408 | 23983 ft | 404 kts | 269° |
| 2026-05-04 14:38 | 36.83241 | 7.88930 | 23990 ft | 404 kts | 269° |
| 2026-05-04 14:39 | 36.83223 | 7.85418 | 23997 ft | 404 kts | 269° |
| 2026-05-04 14:39 | 36.83203 | 7.81905 | 24001 ft | 403 kts | 269° |
| 2026-05-04 14:39 | 36.83177 | 7.78388 | 23994 ft | 403 kts | 269° |
| 2026-05-04 14:40 | 36.83106 | 7.71437 | 23997 ft | 402 kts | 269° |
| 2026-05-04 14:40 | 36.83067 | 7.67949 | 24002 ft | 402 kts | 269° |
| 2026-05-04 14:40 | 36.83028 | 7.64447 | 23999 ft | 401 kts | 269° |
| 2026-05-04 14:40 | 36.82988 | 7.60958 | 23990 ft | 401 kts | 269° |
| 2026-05-04 14:41 | 36.82949 | 7.57472 | 23999 ft | 400 kts | 269° |
| 2026-05-04 14:41 | 36.82908 | 7.53996 | 23997 ft | 400 kts | 269° |
| 2026-05-04 14:41 | 36.82825 | 7.47063 | 23991 ft | 400 kts | 269° |
| 2026-05-04 14:42 | 36.82738 | 7.40126 | 23997 ft | 400 kts | 269° |
| 2026-05-04 14:42 | 36.82692 | 7.36645 | 23992 ft | 400 kts | 269° |
| 2026-05-04 14:42 | 36.82646 | 7.33161 | 23998 ft | 400 kts | 268° |
| 2026-05-04 14:43 | 36.82599 | 7.29686 | 23997 ft | 400 kts | 268° |
| 2026-05-04 14:43 | 36.82551 | 7.26246 | 23985 ft | 400 kts | 268° |
| 2026-05-04 14:43 | 36.82502 | 7.22768 | 23995 ft | 400 kts | 268° |
| 2026-05-04 14:43 | 36.82451 | 7.19287 | 23991 ft | 399 kts | 268° |
| 2026-05-04 14:44 | 36.82400 | 7.15806 | 23993 ft | 399 kts | 268° |
| 2026-05-04 14:44 | 36.82348 | 7.12376 | 23990 ft | 399 kts | 268° |
| 2026-05-04 14:44 | 36.82295 | 7.08894 | 23994 ft | 399 kts | 268° |
| 2026-05-04 14:44 | 36.82241 | 7.05427 | 23982 ft | 398 kts | 268° |
| 2026-05-04 14:45 | 36.82186 | 7.01959 | 23979 ft | 397 kts | 268° |
| 2026-05-04 14:45 | 36.82130 | 6.98545 | 23991 ft | 398 kts | 268° |
| 2026-05-04 14:45 | 36.82073 | 6.95078 | 23992 ft | 398 kts | 268° |
| 2026-05-04 14:45 | 36.82021 | 6.91975 | 23989 ft | 397 kts | 268° |
| 2026-05-04 14:46 | 36.81964 | 6.88562 | 23996 ft | 397 kts | 268° |
| 2026-05-04 14:46 | 36.81904 | 6.85105 | 23983 ft | 397 kts | 268° |
| 2026-05-04 14:46 | 36.81842 | 6.81645 | 23990 ft | 397 kts | 268° |
| 2026-05-04 14:46 | 36.81781 | 6.78236 | 23982 ft | 397 kts | 268° |
| 2026-05-04 14:47 | 36.81718 | 6.74781 | 23984 ft | 396 kts | 268° |
| 2026-05-04 14:47 | 36.81653 | 6.71331 | 23991 ft | 396 kts | 268° |
| 2026-05-04 14:47 | 36.81588 | 6.67891 | 23988 ft | 396 kts | 268° |
| 2026-05-04 14:47 | 36.81524 | 6.64490 | 23992 ft | 396 kts | 268° |
| 2026-05-04 14:48 | 36.81458 | 6.61029 | 23983 ft | 396 kts | 268° |
| 2026-05-04 14:48 | 36.81391 | 6.57624 | 23982 ft | 396 kts | 268° |
| 2026-05-04 14:48 | 36.81323 | 6.54179 | 23980 ft | 396 kts | 268° |
| 2026-05-04 14:48 | 36.81253 | 6.50730 | 23984 ft | 396 kts | 268° |
| 2026-05-04 14:49 | 36.81183 | 6.47327 | 23970 ft | 396 kts | 268° |
| 2026-05-04 14:49 | 36.81113 | 6.43914 | 23969 ft | 384 kts | 268° |
| 2026-05-04 14:49 | 36.81068 | 6.40651 | 23957 ft | 362 kts | 269° |
| 2026-05-04 14:49 | 36.81100 | 6.37754 | 24230 ft | 324 kts | 269° |
| 2026-05-04 14:50 | 36.81062 | 6.34967 | 23987 ft | 308 kts | 266° |
| 2026-05-04 14:50 | 36.80977 | 6.32377 | 23812 ft | 292 kts | 266° |
| 2026-05-04 14:50 | 36.80871 | 6.29920 | 23732 ft | 274 kts | 265° |
| 2026-05-04 14:50 | 36.80746 | 6.27599 | 23661 ft | 256 kts | 265° |
| 2026-05-04 14:51 | 36.80666 | 6.25504 | 23787 ft | 233 kts | 266° |
| 2026-05-04 14:51 | 36.80620 | 6.23589 | 23830 ft | 212 kts | 267° |
| 2026-05-04 14:51 | 36.80587 | 6.21823 | 23845 ft | 189 kts | 266° |
| 2026-05-04 14:51 | 36.80563 | 6.20318 | 23961 ft | 150 kts | 267° |
| 2026-05-04 14:52 | 36.80564 | 6.19139 | 23659 ft | 152 kts | 267° |
| 2026-05-04 14:52 | 36.80508 | 6.17524 | 23024 ft | 211 kts | 265° |
| 2026-05-04 14:52 | 36.80414 | 6.15564 | 23164 ft | 236 kts | 265° |
| 2026-05-04 14:52 | 36.80352 | 6.13446 | 23349 ft | 259 kts | 267° |
| 2026-05-04 14:53 | 36.80318 | 6.11095 | 23664 ft | 280 kts | 267° |
| 2026-05-04 14:53 | 36.80281 | 6.08574 | 23944 ft | 298 kts | 267° |
| 2026-05-04 14:53 | 36.80234 | 6.05894 | 24014 ft | 320 kts | 267° |
| 2026-05-04 14:53 | 36.80176 | 6.03046 | 24026 ft | 343 kts | 267° |
| 2026-05-04 14:54 | 36.80107 | 5.99963 | 24045 ft | 363 kts | 267° |
| 2026-05-04 14:54 | 36.80032 | 5.96770 | 24031 ft | 381 kts | 267° |
| 2026-05-04 14:54 | 36.79949 | 5.93393 | 24029 ft | 394 kts | 267° |
| 2026-05-04 14:54 | 36.79862 | 5.89943 | 24020 ft | 398 kts | 267° |
| 2026-05-04 14:55 | 36.79727 | 5.86489 | 24015 ft | 395 kts | 264° |
| 2026-05-04 14:55 | 36.79414 | 5.83090 | 24026 ft | 393 kts | 262° |
| 2026-05-04 14:55 | 36.79067 | 5.79740 | 24016 ft | 393 kts | 262° |
| 2026-05-04 14:55 | 36.78705 | 5.76344 | 24018 ft | 393 kts | 262° |
| 2026-05-04 14:56 | 36.78344 | 5.72945 | 24017 ft | 394 kts | 262° |
| 2026-05-04 14:56 | 36.77992 | 5.69594 | 24014 ft | 395 kts | 262° |
| 2026-05-04 14:56 | 36.77637 | 5.66174 | 24014 ft | 395 kts | 262° |
| 2026-05-04 14:56 | 36.77288 | 5.62798 | 24012 ft | 395 kts | 262° |
| 2026-05-04 14:57 | 36.76936 | 5.59395 | 23998 ft | 395 kts | 262° |
| 2026-05-04 14:57 | 36.76584 | 5.55979 | 24004 ft | 396 kts | 262° |
| 2026-05-04 14:57 | 36.76231 | 5.52568 | 23994 ft | 395 kts | 262° |
| 2026-05-04 14:57 | 36.75878 | 5.49159 | 24001 ft | 395 kts | 262° |
| 2026-05-04 14:58 | 36.75528 | 5.45791 | 24002 ft | 395 kts | 262° |
| 2026-05-04 14:58 | 36.75173 | 5.42385 | 24003 ft | 395 kts | 262° |
| 2026-05-04 14:58 | 36.74937 | 5.40131 | 24004 ft | 394 kts | 262° |
| 2026-05-04 14:58 | 36.74581 | 5.36729 | 24008 ft | 394 kts | 262° |
| 2026-05-04 14:59 | 36.74108 | 5.32226 | 24012 ft | 394 kts | 262° |
| 2026-05-04 14:59 | 36.73870 | 5.29971 | 24014 ft | 394 kts | 262° |
| 2026-05-04 14:59 | 36.73155 | 5.23212 | 24023 ft | 393 kts | 262° |
| 2026-05-04 15:00 | 36.72794 | 5.19811 | 24025 ft | 393 kts | 262° |
| 2026-05-04 15:00 | 36.72433 | 5.16414 | 24020 ft | 393 kts | 261° |
| 2026-05-04 15:00 | 36.72072 | 5.13033 | 24019 ft | 393 kts | 261° |
| 2026-05-04 15:01 | 36.72137 | 5.06239 | 24027 ft | 396 kts | 276° |
| 2026-05-04 15:01 | 36.72732 | 5.02867 | 24024 ft | 398 kts | 284° |
| 2026-05-04 15:01 | 36.73590 | 4.99611 | 24024 ft | 399 kts | 285° |
| 2026-05-04 15:01 | 36.74493 | 4.96323 | 24023 ft | 399 kts | 285° |
| 2026-05-04 15:02 | 36.75398 | 4.93045 | 24019 ft | 399 kts | 285° |
| 2026-05-04 15:02 | 36.76292 | 4.89790 | 24012 ft | 399 kts | 285° |
| 2026-05-04 15:02 | 36.77190 | 4.86493 | 24017 ft | 399 kts | 285° |
| 2026-05-04 15:02 | 36.78068 | 4.83246 | 24013 ft | 398 kts | 285° |
| 2026-05-04 15:03 | 36.78952 | 4.79956 | 24020 ft | 399 kts | 285° |
| 2026-05-04 15:03 | 36.79835 | 4.76659 | 24008 ft | 399 kts | 285° |
| 2026-05-04 15:03 | 36.80705 | 4.73401 | 24008 ft | 399 kts | 285° |
| 2026-05-04 15:03 | 36.81581 | 4.70115 | 24013 ft | 399 kts | 285° |
| 2026-05-04 15:04 | 36.82461 | 4.66804 | 24006 ft | 398 kts | 285° |
| 2026-05-04 15:04 | 36.83324 | 4.63556 | 24013 ft | 397 kts | 285° |
| 2026-05-04 15:04 | 36.84195 | 4.60276 | 24008 ft | 398 kts | 285° |
| 2026-05-04 15:04 | 36.85068 | 4.56983 | 24006 ft | 398 kts | 285° |
| 2026-05-04 15:05 | 36.85939 | 4.53693 | 24011 ft | 398 kts | 285° |
| 2026-05-04 15:05 | 36.86802 | 4.50429 | 24009 ft | 399 kts | 284° |
| 2026-05-04 15:05 | 36.87673 | 4.47130 | 24008 ft | 400 kts | 285° |
| 2026-05-04 15:05 | 36.88544 | 4.43827 | 24016 ft | 400 kts | 285° |
| 2026-05-04 15:06 | 36.89417 | 4.40516 | 24009 ft | 401 kts | 285° |
| 2026-05-04 15:06 | 36.90291 | 4.37194 | 24010 ft | 400 kts | 284° |
| 2026-05-04 15:06 | 36.91148 | 4.33937 | 24002 ft | 395 kts | 284° |
| 2026-05-04 15:07 | 36.92858 | 4.27420 | 24012 ft | 393 kts | 284° |
| 2026-05-04 15:07 | 36.93701 | 4.24196 | 24012 ft | 394 kts | 284° |
| 2026-05-04 15:07 | 36.94558 | 4.20917 | 24012 ft | 395 kts | 284° |
| 2026-05-04 15:07 | 36.95398 | 4.17700 | 23534 ft | 393 kts | 284° |
| 2026-05-04 15:08 | 36.96245 | 4.14454 | 22873 ft | 388 kts | 284° |
| 2026-05-04 15:08 | 36.97079 | 4.11259 | 22222 ft | 381 kts | 284° |
| 2026-05-04 15:08 | 36.97888 | 4.08149 | 21522 ft | 376 kts | 284° |
| 2026-05-04 15:08 | 36.98687 | 4.05076 | 20823 ft | 372 kts | 284° |
| 2026-05-04 15:09 | 36.99151 | 4.01935 | 20121 ft | 363 kts | 268° |
| 2026-05-04 15:09 | 36.98910 | 3.98821 | 19413 ft | 357 kts | 257° |
| 2026-05-04 15:09 | 36.98119 | 3.95899 | 18753 ft | 353 kts | 243° |
| 2026-05-04 15:10 | 36.95650 | 3.90678 | 17402 ft | 346 kts | 239° |
| 2026-05-04 15:10 | 36.94400 | 3.88124 | 16743 ft | 341 kts | 239° |
| 2026-05-04 15:10 | 36.91974 | 3.83124 | 15549 ft | 333 kts | 240° |
| 2026-05-04 15:11 | 36.90789 | 3.80659 | 14960 ft | 329 kts | 240° |
| 2026-05-04 15:11 | 36.89614 | 3.78208 | 14380 ft | 325 kts | 240° |
| 2026-05-04 15:11 | 36.88468 | 3.75817 | 13808 ft | 322 kts | 240° |
| 2026-05-04 15:11 | 36.87318 | 3.73419 | 13177 ft | 319 kts | 240° |
| 2026-05-04 15:12 | 36.86182 | 3.71039 | 12570 ft | 316 kts | 240° |
| 2026-05-04 15:12 | 36.85063 | 3.68698 | 12014 ft | 312 kts | 240° |
| 2026-05-04 15:12 | 36.83949 | 3.66371 | 11447 ft | 309 kts | 239° |
| 2026-05-04 15:12 | 36.82865 | 3.64110 | 10916 ft | 306 kts | 239° |
| 2026-05-04 15:13 | 36.81780 | 3.61850 | 10603 ft | 296 kts | 239° |
| 2026-05-04 15:13 | 36.80744 | 3.59693 | 10464 ft | 282 kts | 239° |
| 2026-05-04 15:13 | 36.79835 | 3.57724 | 10344 ft | 270 kts | 244° |
| 2026-05-04 15:13 | 36.79264 | 3.55562 | 10300 ft | 260 kts | 256° |
| 2026-05-04 15:14 | 36.78939 | 3.53368 | 10199 ft | 255 kts | 259° |
| 2026-05-04 15:14 | 36.78670 | 3.51193 | 10113 ft | 256 kts | 259° |
| 2026-05-04 15:14 | 36.78405 | 3.48990 | 9931 ft | 256 kts | 259° |
| 2026-05-04 15:14 | 36.78138 | 3.46799 | 9616 ft | 252 kts | 259° |
| 2026-05-04 15:15 | 36.77874 | 3.44672 | 9291 ft | 250 kts | 259° |
| 2026-05-04 15:15 | 36.77606 | 3.42537 | 8962 ft | 248 kts | 258° |
| 2026-05-04 15:15 | 36.77337 | 3.40415 | 8639 ft | 246 kts | 258° |
| 2026-05-04 15:16 | 36.76798 | 3.36218 | 7982 ft | 245 kts | 258° |
| 2026-05-04 15:16 | 36.76529 | 3.34135 | 7643 ft | 246 kts | 258° |
| 2026-05-04 15:16 | 36.75977 | 3.29887 | 6949 ft | 248 kts | 257° |
| 2026-05-04 15:17 | 36.75702 | 3.27778 | 6614 ft | 249 kts | 257° |
| 2026-05-04 15:17 | 36.75144 | 3.23508 | 5968 ft | 248 kts | 257° |
| 2026-05-04 15:17 | 36.74868 | 3.21397 | 5789 ft | 243 kts | 257° |
| 2026-05-04 15:18 | 36.74599 | 3.19347 | 5645 ft | 235 kts | 257° |
| 2026-05-04 15:18 | 36.74343 | 3.17387 | 5540 ft | 227 kts | 257° |
| 2026-05-04 15:18 | 36.74091 | 3.15473 | 5432 ft | 220 kts | 257° |
| 2026-05-04 15:19 | 36.73611 | 3.11827 | 5241 ft | 205 kts | 257° |
| 2026-05-04 15:19 | 36.73383 | 3.10103 | 5117 ft | 198 kts | 257° |
| 2026-05-04 15:19 | 36.72953 | 3.06853 | 4710 ft | 183 kts | 257° |
| 2026-05-04 15:20 | 36.72750 | 3.05318 | 4523 ft | 174 kts | 257° |
| 2026-05-04 15:20 | 36.72556 | 3.03862 | 4361 ft | 172 kts | 257° |
| 2026-05-04 15:20 | 36.72358 | 3.02382 | 4197 ft | 173 kts | 257° |
| 2026-05-04 15:20 | 36.72162 | 3.00904 | 4001 ft | 172 kts | 257° |
| 2026-05-04 15:21 | 36.71965 | 2.99431 | 3844 ft | 175 kts | 257° |
| 2026-05-04 15:21 | 36.71583 | 2.98009 | 3664 ft | 177 kts | 231° |
| 2026-05-04 15:21 | 36.69459 | 2.97509 | 3216 ft | 179 kts | 140° |
| 2026-05-04 15:22 | 36.68938 | 2.98886 | 2924 ft | 182 kts | 88° |
| 2026-05-04 15:22 | 36.69309 | 3.00354 | 2710 ft | 176 kts | 72° |
| 2026-05-04 15:22 | 36.69477 | 3.03219 | 2278 ft | 158 kts | 84° |
| 2026-05-04 15:23 | 36.69505 | 3.04551 | 2089 ft | 148 kts | 90° |
| 2026-05-04 15:23 | 36.69481 | 3.05786 | 1901 ft | 138 kts | 90° |
| 2026-05-04 15:23 | 36.69450 | 3.06971 | 1671 ft | 135 kts | 90° |
| 2026-05-04 15:23 | 36.69422 | 3.08125 | 1462 ft | 132 kts | 87° |
| 2026-05-04 15:24 | 36.69376 | 3.10339 | 1113 ft | 124 kts | 88° |
| 2026-05-04 15:24 | 36.69311 | 3.12474 | 768 ft | 123 kts | 91° |
| 2026-05-04 15:25 | 36.69292 | 3.13545 | 614 ft | 125 kts | 87° |
| 2026-05-04 15:25 | 36.69262 | 3.14619 | 491 ft | 126 kts | 86° |
| 2026-05-04 15:25 | 36.69238 | 3.15708 | 312 ft | 127 kts | 86° |
| 2026-05-04 15:26 | 36.69190 | 3.17838 | 74 ft | 109 kts | 91° |
| 2026-05-04 15:26 | 36.69168 | 3.18626 | 78 ft | 74 kts | 92° |
| 2026-05-04 15:26 | 36.69148 | 3.19539 | 73 ft | 44 kts | 90° |
| 2026-05-04 15:27 | 36.69201 | 3.19868 | 67 ft | 34 kts | 63° |
| 2026-05-04 15:27 | 36.69286 | 3.20090 | 68 ft | 11 kts | 74° |
| 2026-05-04 15:28 | 36.69299 | 3.20235 | 68 ft | 11 kts | 79° |
| 2026-05-04 15:28 | 36.69385 | 3.20291 | 66 ft | 20 kts | 1° |
| 2026-05-04 15:28 | 36.69625 | 3.20370 | 65 ft | 14 kts | 1° |
| 2026-05-04 15:29 | 36.69702 | 3.20368 | 69 ft | 10 kts | 348° |
| 2026-05-04 15:30 | 36.69715 | 3.20283 | 69 ft | 2 kts | 271° |
| 2026-05-04 15:30 | 36.69715 | 3.20278 | 69 ft | 0 kts | 271° |